Airfield :
LOGIN :

Register | Disclaimer

   EN    FR    IT 

 










Legend :    VFR   Marginal VFR   IFR   Intensive IFR   Very Intensive IFR
Visi :
Ceiling :
>= 8 km
>= 3000ft
5 to 8 km
1000 to 3000 ft
1500m to 5 km
500 to 1000 ft
800 to 1500m
200 to 500 ft
< 800m
< 200 ft
Symbols :   Thunderstorms  Fog  Heavy snow  Heavy precipitations  Wind > 20 kt
SIGMETs :     Misc.  Thunderstorms  Icing  Turbulence  Mountain Waves  Volcanic Ashes






- Airport Elevation : 1470 ft


LSMD - Dubendorf Military

CURRENT METAR :
  • 152250Z AUTO 23005KT 170V270 9999NDV FEW023 SCT042 OVC054 11/08 Q1017 RMK

EXPIRED METARs :
  • 152220Z AUTO 23007KT 200V280 9999NDV -RA SCT020 SCT045 OVC053 11/08 Q1017 RMK
  • 152150Z AUTO 23005KT 190V290 9999NDV -RA BKN021 OVC038 10/08 Q1016 RMK
  • 152120Z AUTO 22006KT 180V260 7000NDV -RA BKN025 OVC031 11/08 Q1016 RMK
  • 152050Z AUTO 22007KT 170V260 9999NDV -RA SCT027 OVC051 11/08 Q1016 RMK
  • 152020Z AUTO 22008KT 170V240 9999NDV -RA BKN025 OVC029 11/08 Q1015 RMK

Expired Forecast.



MET'MAP, your aeronautical weather chart ! - Copyright ORBIFLY December 2007 - Disclaimer

ORBIFLY MET'MAP TEAM :

Programming & Development : Alexandra Zaïnal
Concept & Development : Baudouin d'Aumeries
Co-Development & Prog : Marc-Olivier Méhu
Technical & hardware support : Manuel Goepfert

Contact : metmap@orbifly.com




SOURCES & CREDITS :

   NOAA